Hovedside
METAR-TAF:

METAR-TAF

Lufthavner :

Jekaterinburg, Russland

breddegrad: 56-50N, lengdegrad: 060-38E, høyde over havet: 237 m

Gjeldene værobservasjon

Denne rapporten ble laget for 31 minutter siden, klokken 19:00 UTC
Vind 2 kt fra Øst
Temperatur -25°C
Luftfuktighet 83%
Trykk 1036 hPa
Sikt: 9000 m
Spredte skyer i en høyde av 1400 ft

METAR: USSS 191900Z 10001MPS 9000 SCT014 M25/M27 Q1036 R26R/190042 NOSIG RMK QFE756/1008

Tid: 00:31 (19:31 UTC)

Varsel

Denne rapporten ble laget for 2 timer og 35 minutter siden, klokken 16:56 UTC
Varsel gyldig fra 19. klokken 18 UTC til 20. klokken 18 UTC
Vind 6 kt fra Nordøst
Sikt: 3100 m
Spredte skyer i en høyde av 700 ft
dis
Midlertidig
fra 19. klokken 18 UTC til 20. klokken 06 UTC
Sikt: 0300 m
i en høyde av 200 ft
tåke
Blir
fra 20. klokken 06 UTC til 20. klokken 08 UTC
Sikt: 5000 m
Brutte skyer i en høyde av 1500 ft
dis

TAF: USSS 191656Z 1918/2018 05003MPS 3100 BR SCT007 TEMPO 1918/2006 0300 FG VV002 BECMG 2006/2008 5000 BR BKN015

Værobservasjoner og værvarsel for over 4000 flyplasser (METAR- og TAF-rapporter).

Tilgjengelige stasjoner er representert av de røde og gule prikkene på kartet.

Hold musepekeren over prikken for å se navnet på stasjonen.

Klikk så for å se værobservasjoner og -varsler.

For å forandre kartet kan du klikke på den grønne knappen med svart kryss for å zoome inn, på den grønne knappen med strek for å zoome ut, eller på de grønne pilene for å se tilstøtende kart.


METAR-TAF: